Portada
METAR-TAF:

METAR-TAF

Aeropuertos :

Mécheria, Argelia

latitud: 34-56N, longitud: 000-26W, altitud: 1149 m

Observación

El informe se hizo hace 22 minutos, a las 05:00 UTC
Viento 6 kt del sur-sureste
Temperatura 1°C
Humedad 86%
Presión 1029 hPa
Visibilidad: 8000 m
Escasas nubes a una altura de 1600 ft

METAR: DAAY 150500Z 15006KT 8000 FEW016 01/M01 Q1029

Hora: 06:22 (05:22 UTC)

Pronóstico

El informe se hizo hace 6 horas y 22 minutos, a las 23:00 UTC
Pronóstico válido del 15 a las 00 UTC al 15 a las 09 UTC
Viento 14 kt del norte-noroeste
Visibilidad: 7000 m
Nubes dispersas a una altura de 2600 ft
Probabilidad 30% :
Temporalmente
del 15 a las 02 UTC al 15 a las 08 UTC
Viento 2 kt con dirección variable
Visibilidad: 2000 m
Nubes dispersas a una altura de 1000 ft
neblina

TAF: DAAY 142300Z 1500/1509 33014KT 7000 SCT026 PROB30 TEMPO 1502/1508 VRB02KT 2000 BR SCT010

Observaciones y pronósticos meteorológicos de más de 4000 aeropuertos (mensajes METAR y TAF).

Los puntos amarillos y rojos representan las estaciones disponibles.

Ponga el ratón en el punto deseado para ver el nombre de la estación.

Haga clic para ver las observaciones y los pronósticos meteorológicos.

Para cambiar el mapa : haga clic en los botones verdes con una cruz de color negro para hacer un zoom, en el botón verde con un guión para alejar o en las flechas verdes para mapas adyacentes.


METAR-TAF: